sensor_id;sensor_type;location;lat;lon;timestamp;pressure;altitude;pressure_sealevel;temperature;humidity
32320;BME280;19080;51.750;5.888;2023-09-19T00:00:45;100504.81;;;15.67;100.00
32320;BME280;19080;51.750;5.888;2023-09-19T00:03:14;100527.06;;;15.70;100.00
32320;BME280;19080;51.750;5.888;2023-09-19T00:05:42;100536.81;;;15.76;100.00
32320;BME280;19080;51.750;5.888;2023-09-19T00:08:11;100416.44;;;14.91;100.00
32320;BME280;19080;51.750;5.888;2023-09-19T00:10:40;100548.63;;;15.53;100.00
32320;BME280;19080;51.750;5.888;2023-09-19T00:13:08;100529.16;;;15.41;100.00
32320;BME280;19080;51.750;5.888;2023-09-19T00:15:42;100547.78;;;15.48;100.00
32320;BME280;19080;51.750;5.888;2023-09-19T00:18:09;100525.59;;;15.40;100.00
32320;BME280;19080;51.750;5.888;2023-09-19T00:20:36;100549.50;;;15.58;100.00
32320;BME280;19080;51.750;5.888;2023-09-19T00:23:05;100520.25;;;15.37;100.00
32320;BME280;19080;51.750;5.888;2023-09-19T00:25:35;100537.25;;;15.33;100.00
32320;BME280;19080;51.750;5.888;2023-09-19T00:28:04;100537.28;;;15.30;100.00
32320;BME280;19080;51.750;5.888;2023-09-19T00:30:33;100541.81;;;15.22;100.00
32320;BME280;19080;51.750;5.888;2023-09-19T00:33:00;100553.44;;;15.15;100.00
32320;BME280;19080;51.750;5.888;2023-09-19T00:35:28;100555.31;;;15.04;100.00
32320;BME280;19080;51.750;5.888;2023-09-19T00:37:55;100534.97;;;14.86;100.00
32320;BME280;19080;51.750;5.888;2023-09-19T00:40:22;100550.09;;;14.85;100.00
32320;BME280;19080;51.750;5.888;2023-09-19T00:42:49;100548.38;;;14.78;100.00
32320;BME280;19080;51.750;5.888;2023-09-19T00:45:17;100578.63;;;14.83;100.00
32320;BME280;19080;51.750;5.888;2023-09-19T00:47:49;100563.59;;;14.65;100.00
32320;BME280;19080;51.750;5.888;2023-09-19T00:50:18;100502.34;;;14.30;100.00
32320;BME280;19080;51.750;5.888;2023-09-19T00:52:50;100494.41;;;14.12;100.00
32320;BME280;19080;51.750;5.888;2023-09-19T00:55:19;100545.00;;;14.37;100.00
32320;BME280;19080;51.750;5.888;2023-09-19T00:57:47;100571.72;;;14.46;100.00
32320;BME280;19080;51.750;5.888;2023-09-19T01:00:17;100559.28;;;14.31;100.00
32320;BME280;19080;51.750;5.888;2023-09-19T01:02:47;100570.84;;;14.33;100.00
32320;BME280;19080;51.750;5.888;2023-09-19T01:05:15;100559.34;;;14.17;100.00
32320;BME280;19080;51.750;5.888;2023-09-19T01:07:43;100561.13;;;14.15;100.00
32320;BME280;19080;51.750;5.888;2023-09-19T01:10:17;100551.34;;;14.14;100.00
32320;BME280;19080;51.750;5.888;2023-09-19T01:12:59;100594.88;;;14.31;100.00
32320;BME280;19080;51.750;5.888;2023-09-19T01:26:54;100599.34;;;14.31;100.00
32320;BME280;19080;51.750;5.888;2023-09-19T01:29:52;100600.19;;;14.36;100.00
32320;BME280;19080;51.750;5.888;2023-09-19T01:32:21;100571.78;;;14.18;100.00
32320;BME280;19080;51.750;5.888;2023-09-19T01:34:57;100610.88;;;14.44;100.00
32320;BME280;19080;51.750;5.888;2023-09-19T01:37:32;100609.09;;;14.46;100.00
32320;BME280;19080;51.750;5.888;2023-09-19T01:40:04;100616.16;;;14.59;100.00
32320;BME280;19080;51.750;5.888;2023-09-19T01:42:58;100615.22;;;14.66;100.00
32320;BME280;19080;51.750;5.888;2023-09-19T01:48:46;100625.84;;;14.78;100.00
32320;BME280;19080;51.750;5.888;2023-09-19T01:51:24;100548.59;;;14.32;100.00
32320;BME280;19080;51.750;5.888;2023-09-19T01:54:01;100555.75;;;14.27;100.00
32320;BME280;19080;51.750;5.888;2023-09-19T01:59:17;100610.88;;;14.47;100.00
32320;BME280;19080;51.750;5.888;2023-09-19T02:01:48;100600.19;;;14.44;100.00
32320;BME280;19080;51.750;5.888;2023-09-19T02:04:16;100568.25;;;14.13;100.00
32320;BME280;19080;51.750;5.888;2023-09-19T02:06:43;100607.34;;;14.29;100.00
32320;BME280;19080;51.750;5.888;2023-09-19T02:09:09;100612.69;;;14.26;100.00
32320;BME280;19080;51.750;5.888;2023-09-19T02:11:36;100637.56;;;14.41;100.00
32320;BME280;19080;51.750;5.888;2023-09-19T02:14:03;100586.94;;;14.15;100.00
32320;BME280;19080;51.750;5.888;2023-09-19T02:16:31;100636.69;;;14.37;100.00
32320;BME280;19080;51.750;5.888;2023-09-19T02:18:58;100632.25;;;14.31;100.00
32320;BME280;19080;51.750;5.888;2023-09-19T02:21:26;100602.09;;;14.08;100.00
32320;BME280;19080;51.750;5.888;2023-09-19T02:23:56;100601.19;;;14.06;100.00
32320;BME280;19080;51.750;5.888;2023-09-19T02:26:23;100563.97;;;13.73;100.00
32320;BME280;19080;51.750;5.888;2023-09-19T02:28:50;100635.91;;;14.03;100.00
32320;BME280;19080;51.750;5.888;2023-09-19T02:31:16;100621.69;;;13.99;100.00
32320;BME280;19080;51.750;5.888;2023-09-19T02:33:43;100642.13;;;14.05;100.00
32320;BME280;19080;51.750;5.888;2023-09-19T02:36:10;100611.03;;;13.87;100.00
32320;BME280;19080;51.750;5.888;2023-09-19T02:38:37;100611.06;;;13.77;100.00
32320;BME280;19080;51.750;5.888;2023-09-19T02:41:03;100634.19;;;13.81;100.00
32320;BME280;19080;51.750;5.888;2023-09-19T02:43:30;100616.44;;;13.71;100.00
32320;BME280;19080;51.750;5.888;2023-09-19T02:45:57;100611.09;;;13.58;100.00
32320;BME280;19080;51.750;5.888;2023-09-19T02:48:23;100611.09;;;13.58;100.00
32320;BME280;19080;51.750;5.888;2023-09-19T02:50:52;100581.78;;;13.37;100.00
32320;BME280;19080;51.750;5.888;2023-09-19T02:53:20;100572.00;;;13.27;100.00
32320;BME280;19080;51.750;5.888;2023-09-19T02:55:47;100611.09;;;13.43;100.00
32320;BME280;19080;51.750;5.888;2023-09-19T02:58:14;100620.00;;;13.39;100.00
32320;BME280;19080;51.750;5.888;2023-09-19T03:00:41;100622.66;;;13.39;100.00
32320;BME280;19080;51.750;5.888;2023-09-19T03:03:09;100642.22;;;13.44;100.00
32320;BME280;19080;51.750;5.888;2023-09-19T03:05:36;100613.78;;;13.25;100.00
32320;BME280;19080;51.750;5.888;2023-09-19T03:08:05;100630.66;;;13.34;100.00
32320;BME280;19080;51.750;5.888;2023-09-19T03:10:32;100635.09;;;13.34;100.00
32320;BME280;19080;51.750;5.888;2023-09-19T03:13:00;100621.75;;;13.19;100.00
32320;BME280;19080;51.750;5.888;2023-09-19T03:15:27;100638.63;;;13.22;100.00
32320;BME280;19080;51.750;5.888;2023-09-19T03:17:54;100645.75;;;13.19;100.00
32320;BME280;19080;51.750;5.888;2023-09-19T03:20:24;100643.91;;;13.12;100.00
32320;BME280;19080;51.750;5.888;2023-09-19T03:22:53;100667.97;;;13.27;100.00
32320;BME280;19080;51.750;5.888;2023-09-19T03:25:21;100646.59;;;13.12;100.00
32320;BME280;19080;51.750;5.888;2023-09-19T03:27:50;100665.28;;;13.24;100.00
32320;BME280;19080;51.750;5.888;2023-09-19T03:30:17;100632.34;;;12.97;100.00
32320;BME280;19080;51.750;5.888;2023-09-19T03:32:48;100651.91;;;13.09;100.00
32320;BME280;19080;51.750;5.888;2023-09-19T03:35:18;100635.91;;;12.99;100.00
32320;BME280;19080;51.750;5.888;2023-09-19T03:37:45;100635.91;;;12.99;100.00
32320;BME280;19080;51.750;5.888;2023-09-19T03:40:13;100669.75;;;13.25;100.00
32320;BME280;19080;51.750;5.888;2023-09-19T03:42:41;100661.75;;;13.28;100.00
32320;BME280;19080;51.750;5.888;2023-09-19T03:45:11;100631.50;;;13.09;100.00
32320;BME280;19080;51.750;5.888;2023-09-19T03:48:10;100622.59;;;13.09;100.00
32320;BME280;19080;51.750;5.888;2023-09-19T03:50:37;100639.47;;;13.14;100.00
32320;BME280;19080;51.750;5.888;2023-09-19T03:53:04;100648.41;;;13.22;100.00
32320;BME280;19080;51.750;5.888;2023-09-19T03:55:31;100641.31;;;13.21;100.00
32320;BME280;19080;51.750;5.888;2023-09-19T03:57:58;100643.97;;;13.24;100.00
32320;BME280;19080;51.750;5.888;2023-09-19T04:00:25;100629.75;;;13.17;100.00
32320;BME280;19080;51.750;5.888;2023-09-19T04:02:53;100610.16;;;13.11;100.00
32320;BME280;19080;51.750;5.888;2023-09-19T04:05:20;100635.09;;;13.31;100.00
32320;BME280;19080;51.750;5.888;2023-09-19T04:07:46;100629.75;;;13.25;100.00
32320;BME280;19080;51.750;5.888;2023-09-19T04:10:13;100568.41;;;12.88;100.00
32320;BME280;19080;51.750;5.888;2023-09-19T04:12:50;100643.97;;;13.30;100.00
32320;BME280;19080;51.750;5.888;2023-09-19T04:15:19;100625.31;;;13.24;100.00
32320;BME280;19080;51.750;5.888;2023-09-19T04:17:45;100640.44;;;13.37;100.00
32320;BME280;19080;51.750;5.888;2023-09-19T04:20:13;100640.44;;;13.34;100.00
32320;BME280;19080;51.750;5.888;2023-09-19T04:22:40;100659.09;;;13.43;100.00
32320;BME280;19080;51.750;5.888;2023-09-19T04:25:08;100647.53;;;13.35;100.00
32320;BME280;19080;51.750;5.888;2023-09-19T04:27:35;100675.09;;;13.46;100.00
32320;BME280;19080;51.750;5.888;2023-09-19T04:30:03;100587.94;;;12.96;100.00
32320;BME280;19080;51.750;5.888;2023-09-19T04:32:31;100641.31;;;13.24;100.00
32320;BME280;19080;51.750;5.888;2023-09-19T04:34:59;100669.75;;;13.34;100.00
32320;BME280;19080;51.750;5.888;2023-09-19T04:37:29;100653.75;;;13.25;100.00
32320;BME280;19080;51.750;5.888;2023-09-19T04:39:56;100708.88;;;13.47;100.00
32320;BME280;19080;51.750;5.888;2023-09-19T04:42:23;100691.97;;;13.31;100.00
32320;BME280;19080;51.750;5.888;2023-09-19T04:44:51;100678.63;;;13.21;100.00
32320;BME280;19080;51.750;5.888;2023-09-19T04:47:19;100717.75;;;13.37;100.00
32320;BME280;19080;51.750;5.888;2023-09-19T04:49:47;100631.44;;;12.85;100.00
32320;BME280;19080;51.750;5.888;2023-09-19T04:52:15;100592.31;;;12.64;100.00
32320;BME280;19080;51.750;5.888;2023-09-19T04:54:42;100721.31;;;13.39;100.00
32320;BME280;19080;51.750;5.888;2023-09-19T04:57:10;100731.09;;;13.45;100.00
32320;BME280;19080;51.750;5.888;2023-09-19T04:59:36;100721.28;;;13.38;100.00
32320;BME280;19080;51.750;5.888;2023-09-19T05:02:04;100710.63;;;13.39;100.00
32320;BME280;19080;51.750;5.888;2023-09-19T05:04:31;100701.75;;;13.46;100.00
32320;BME280;19080;51.750;5.888;2023-09-19T05:06:58;100705.31;;;13.56;100.00
32320;BME280;19080;51.750;5.888;2023-09-19T05:09:27;100645.75;;;13.29;100.00
32320;BME280;19080;51.750;5.888;2023-09-19T05:11:54;100716.88;;;13.72;100.00
32320;BME280;19080;51.750;5.888;2023-09-19T05:14:20;100698.22;;;13.52;100.00
32320;BME280;19080;51.750;5.888;2023-09-19T05:16:47;100717.78;;;13.61;100.00
32320;BME280;19080;51.750;5.888;2023-09-19T05:19:14;100713.34;;;13.60;100.00
32320;BME280;19080;51.750;5.888;2023-09-19T05:21:40;100733.78;;;13.71;100.00
32320;BME280;19080;51.750;5.888;2023-09-19T05:24:07;100735.56;;;13.68;100.00
32320;BME280;19080;51.750;5.888;2023-09-19T05:26:36;100701.75;;;13.43;100.00
32320;BME280;19080;51.750;5.888;2023-09-19T05:29:03;100645.72;;;13.14;100.00
32320;BME280;19080;51.750;5.888;2023-09-19T05:31:31;100711.56;;;13.59;100.00
32320;BME280;19080;51.750;5.888;2023-09-19T05:33:58;100708.00;;;13.60;100.00
32320;BME280;19080;51.750;5.888;2023-09-19T05:36:27;100706.22;;;13.53;100.00
32320;BME280;19080;51.750;5.888;2023-09-19T05:38:56;100712.44;;;13.58;100.00
32320;BME280;19080;51.750;5.888;2023-09-19T05:41:23;100707.09;;;13.61;100.00
32320;BME280;19080;51.750;5.888;2023-09-19T05:43:50;100693.78;;;13.51;100.00
32320;BME280;19080;51.750;5.888;2023-09-19T05:46:17;100728.44;;;13.71;100.00
32320;BME280;19080;51.750;5.888;2023-09-19T05:48:44;100716.00;;;13.70;100.00
32320;BME280;19080;51.750;5.888;2023-09-19T05:51:11;100751.53;;;13.91;100.00
32320;BME280;19080;51.750;5.888;2023-09-19T05:53:37;100713.34;;;13.82;100.00
32320;BME280;19080;51.750;5.888;2023-09-19T05:56:04;100720.41;;;13.92;100.00
32320;BME280;19080;51.750;5.888;2023-09-19T05:58:31;100712.41;;;13.89;100.00
32320;BME280;19080;51.750;5.888;2023-09-19T06:00:59;100683.09;;;13.74;100.00
32320;BME280;19080;51.750;5.888;2023-09-19T06:03:25;100679.53;;;13.85;100.00
32320;BME280;19080;51.750;5.888;2023-09-19T06:05:52;100739.06;;;14.19;100.00
32320;BME280;19080;51.750;5.888;2023-09-19T06:08:23;100744.41;;;14.34;100.00
32320;BME280;19080;51.750;5.888;2023-09-19T06:10:50;100741.72;;;14.38;100.00
32320;BME280;19080;51.750;5.888;2023-09-19T06:13:18;100735.50;;;14.42;100.00
32320;BME280;19080;51.750;5.888;2023-09-19T06:15:46;100730.16;;;14.42;100.00
32320;BME280;19080;51.750;5.888;2023-09-19T06:18:17;100747.94;;;14.53;100.00
32320;BME280;19080;51.750;5.888;2023-09-19T06:20:47;100589.75;;;13.71;100.00
32320;BME280;19080;51.750;5.888;2023-09-19T06:23:14;100747.00;;;14.68;100.00
32320;BME280;19080;51.750;5.888;2023-09-19T06:25:41;100715.88;;;14.61;100.00
32320;BME280;19080;51.750;5.888;2023-09-19T06:28:09;100706.09;;;14.54;100.00
32320;BME280;19080;51.750;5.888;2023-09-19T06:30:38;100737.19;;;14.73;100.00
32320;BME280;19080;51.750;5.888;2023-09-19T06:33:09;100737.16;;;14.82;100.00
32320;BME280;19080;51.750;5.888;2023-09-19T06:35:38;100760.25;;;15.02;100.00
32320;BME280;19080;51.750;5.888;2023-09-19T06:38:05;100734.47;;;14.91;100.00
32320;BME280;19080;51.750;5.888;2023-09-19T06:40:34;100738.84;;;15.06;100.00
32320;BME280;19080;51.750;5.888;2023-09-19T06:43:01;100735.28;;;15.09;100.00
32320;BME280;19080;51.750;5.888;2023-09-19T06:45:31;100745.91;;;15.18;100.00
32320;BME280;19080;51.750;5.888;2023-09-19T06:47:59;100733.44;;;15.18;100.00
32320;BME280;19080;51.750;5.888;2023-09-19T06:50:27;100724.53;;;15.18;100.00
32320;BME280;19080;51.750;5.888;2023-09-19T06:52:55;100717.44;;;15.12;100.00
32320;BME280;19080;51.750;5.888;2023-09-19T06:55:24;100783.09;;;15.67;100.00
32320;BME280;19080;51.750;5.888;2023-09-19T06:57:54;100704.81;;;15.37;100.00
32320;BME280;19080;51.750;5.888;2023-09-19T07:00:21;100777.56;;;15.91;100.00
32320;BME280;19080;51.750;5.888;2023-09-19T07:03:04;100741.94;;;15.83;100.00
32320;BME280;19080;51.750;5.888;2023-09-19T07:05:36;100692.09;;;15.67;100.00
32320;BME280;19080;51.750;5.888;2023-09-19T07:08:07;100684.97;;;15.67;100.00
32320;BME280;19080;51.750;5.888;2023-09-19T07:10:34;100777.25;;;16.26;100.00
32320;BME280;19080;51.750;5.888;2023-09-19T07:13:03;100714.94;;;16.07;100.00
32320;BME280;19080;51.750;5.888;2023-09-19T07:15:32;100769.97;;;16.42;100.00
32320;BME280;19080;51.750;5.888;2023-09-19T07:18:02;100761.03;;;16.43;100.00
32320;BME280;19080;51.750;5.888;2023-09-19T07:20:29;100742.22;;;16.47;100.00
32320;BME280;19080;51.750;5.888;2023-09-19T07:22:59;100732.28;;;16.57;100.00
32320;BME280;19080;51.750;5.888;2023-09-19T07:25:30;100685.16;;;16.39;100.00
32320;BME280;19080;51.750;5.888;2023-09-19T07:27:58;100771.09;;;17.04;100.00
32320;BME280;19080;51.750;5.888;2023-09-19T07:30:27;100765.59;;;17.14;100.00
32320;BME280;19080;51.750;5.888;2023-09-19T07:32:54;100751.38;;;17.08;100.00
32320;BME280;19080;51.750;5.888;2023-09-19T07:35:21;100779.00;;;17.14;100.00
32320;BME280;19080;51.750;5.888;2023-09-19T07:37:49;100779.81;;;17.21;100.00
32320;BME280;19080;51.750;5.888;2023-09-19T07:40:18;100763.72;;;17.21;100.00
32320;BME280;19080;51.750;5.888;2023-09-19T07:42:46;100754.69;;;17.28;100.00
32320;BME280;19080;51.750;5.888;2023-09-19T07:45:13;100770.56;;;17.40;100.00
32320;BME280;19080;51.750;5.888;2023-09-19T07:47:44;100758.91;;;17.44;100.00
32320;BME280;19080;51.750;5.888;2023-09-19T07:50:13;100772.03;;;17.66;100.00
32320;BME280;19080;51.750;5.888;2023-09-19T07:52:40;100775.34;;;17.83;100.00
32320;BME280;19080;51.750;5.888;2023-09-19T07:55:06;100759.28;;;17.80;100.00
32320;BME280;19080;51.750;5.888;2023-09-19T07:57:38;100756.38;;;17.94;100.00
32320;BME280;19080;51.750;5.888;2023-09-19T08:00:05;100776.38;;;18.30;100.00
32320;BME280;19080;51.750;5.888;2023-09-19T08:02:37;100783.00;;;18.61;100.00
32320;BME280;19080;51.750;5.888;2023-09-19T08:05:05;100794.69;;;19.05;100.00
32320;BME280;19080;51.750;5.888;2023-09-19T08:07:33;100779.31;;;19.10;100.00
32320;BME280;19080;51.750;5.888;2023-09-19T08:10:00;100790.59;;;19.27;100.00
32320;BME280;19080;51.750;5.888;2023-09-19T08:12:27;100799.88;;;19.56;100.00
32320;BME280;19080;51.750;5.888;2023-09-19T08:14:54;100773.00;;;19.54;100.00
32320;BME280;19080;51.750;5.888;2023-09-19T08:17:21;100799.28;;;19.81;100.00
32320;BME280;19080;51.750;5.888;2023-09-19T08:19:49;100782.66;;;19.63;100.00
32320;BME280;19080;51.750;5.888;2023-09-19T08:22:19;100784.00;;;19.82;100.00
32320;BME280;19080;51.750;5.888;2023-09-19T08:24:46;100773.09;;;19.88;100.00
32320;BME280;19080;51.750;5.888;2023-09-19T08:27:14;100674.22;;;19.16;100.00
32320;BME280;19080;51.750;5.888;2023-09-19T08:29:41;100811.66;;;19.90;100.00
32320;BME280;19080;51.750;5.888;2023-09-19T08:32:08;100714.97;;;19.39;100.00
32320;BME280;19080;51.750;5.888;2023-09-19T08:34:36;100732.47;;;19.60;100.00
32320;BME280;19080;51.750;5.888;2023-09-19T08:37:05;100781.34;;;19.80;100.00
32320;BME280;19080;51.750;5.888;2023-09-19T08:39:32;100781.78;;;19.99;100.00
32320;BME280;19080;51.750;5.888;2023-09-19T08:42:00;100781.50;;;20.11;100.00
32320;BME280;19080;51.750;5.888;2023-09-19T08:44:28;100691.66;;;19.77;100.00
32320;BME280;19080;51.750;5.888;2023-09-19T08:47:08;100799.44;;;20.80;100.00
32320;BME280;19080;51.750;5.888;2023-09-19T08:52:18;100783.72;;;20.65;100.00
32320;BME280;19080;51.750;5.888;2023-09-19T08:54:48;100771.16;;;20.64;100.00
32320;BME280;19080;51.750;5.888;2023-09-19T08:57:19;100777.00;;;21.11;100.00
32320;BME280;19080;51.750;5.888;2023-09-19T08:59:48;100735.84;;;21.03;100.00
32320;BME280;19080;51.750;5.888;2023-09-19T09:02:16;100804.13;;;21.67;100.00
32320;BME280;19080;51.750;5.888;2023-09-19T09:04:45;100804.81;;;22.01;100.00
32320;BME280;19080;51.750;5.888;2023-09-19T09:07:14;100749.31;;;21.91;100.00
32320;BME280;19080;51.750;5.888;2023-09-19T09:09:41;100795.22;;;22.21;100.00
32320;BME280;19080;51.750;5.888;2023-09-19T09:12:11;100805.63;;;22.33;100.00
32320;BME280;19080;51.750;5.888;2023-09-19T09:14:46;100780.34;;;22.34;100.00
32320;BME280;19080;51.750;5.888;2023-09-19T09:17:17;100790.66;;;22.72;99.23
32320;BME280;19080;51.750;5.888;2023-09-19T09:19:47;100761.91;;;22.95;94.95
32320;BME280;19080;51.750;5.888;2023-09-19T09:22:14;100779.59;;;23.05;96.24
32320;BME280;19080;51.750;5.888;2023-09-19T09:24:56;100789.97;;;23.17;94.13
32320;BME280;19080;51.750;5.888;2023-09-19T09:27:27;100753.19;;;22.87;95.35
32320;BME280;19080;51.750;5.888;2023-09-19T09:29:54;100772.78;;;22.44;94.75
32320;BME280;19080;51.750;5.888;2023-09-19T09:32:26;100731.25;;;22.20;94.21
32320;BME280;19080;51.750;5.888;2023-09-19T09:34:59;100766.50;;;22.43;94.61
32320;BME280;19080;51.750;5.888;2023-09-19T09:37:28;100718.63;;;21.92;93.93
32320;BME280;19080;51.750;5.888;2023-09-19T09:40:02;100726.53;;;21.98;91.84
32320;BME280;19080;51.750;5.888;2023-09-19T09:42:40;100784.34;;;22.49;91.69
32320;BME280;19080;51.750;5.888;2023-09-19T09:45:16;100772.53;;;23.01;90.49
32320;BME280;19080;51.750;5.888;2023-09-19T09:47:54;100731.69;;;23.54;85.70
32320;BME280;19080;51.750;5.888;2023-09-19T09:50:29;100749.47;;;24.05;80.87
32320;BME280;19080;51.750;5.888;2023-09-19T09:53:19;100705.41;;;24.20;73.73
32320;BME280;19080;51.750;5.888;2023-09-19T09:56:06;100732.84;;;24.34;71.42
32320;BME280;19080;51.750;5.888;2023-09-19T10:01:02;100697.66;;;23.90;66.51
32320;BME280;19080;51.750;5.888;2023-09-19T10:03:39;100768.06;;;23.92;68.69
32320;BME280;19080;51.750;5.888;2023-09-19T10:06:07;100765.81;;;24.03;70.41
32320;BME280;19080;51.750;5.888;2023-09-19T10:11:48;100758.88;;;23.96;68.78
32320;BME280;19080;51.750;5.888;2023-09-19T10:14:26;100759.97;;;24.54;67.73
32320;BME280;19080;51.750;5.888;2023-09-19T10:16:59;100781.09;;;24.68;65.42
32320;BME280;19080;51.750;5.888;2023-09-19T10:19:42;100746.41;;;24.75;68.22
32320;BME280;19080;51.750;5.888;2023-09-19T10:22:14;100757.81;;;24.83;66.68
32320;BME280;19080;51.750;5.888;2023-09-19T10:24:49;100740.09;;;24.74;63.28
32320;BME280;19080;51.750;5.888;2023-09-19T10:27:30;100759.81;;;25.18;62.47
32320;BME280;19080;51.750;5.888;2023-09-19T10:30:06;100739.47;;;25.08;60.68
32320;BME280;19080;51.750;5.888;2023-09-19T10:32:35;100734.28;;;25.22;62.68
32320;BME280;19080;51.750;5.888;2023-09-19T10:35:07;100744.41;;;25.38;58.95
32320;BME280;19080;51.750;5.888;2023-09-19T10:37:36;100766.19;;;25.75;57.75
32320;BME280;19080;51.750;5.888;2023-09-19T10:40:05;100752.06;;;25.86;57.11
32320;BME280;19080;51.750;5.888;2023-09-19T10:42:38;100753.69;;;25.71;56.87
32320;BME280;19080;51.750;5.888;2023-09-19T10:45:06;100736.53;;;26.41;55.11
32320;BME280;19080;51.750;5.888;2023-09-19T10:47:39;100741.94;;;26.24;54.86
32320;BME280;19080;51.750;5.888;2023-09-19T10:50:07;100764.50;;;26.09;55.01
32320;BME280;19080;51.750;5.888;2023-09-19T10:52:41;100726.97;;;26.15;53.58
32320;BME280;19080;51.750;5.888;2023-09-19T10:55:18;100726.84;;;26.36;56.22
32320;BME280;19080;51.750;5.888;2023-09-19T10:57:46;100768.88;;;26.65;54.41
32320;BME280;19080;51.750;5.888;2023-09-19T11:00:13;100754.75;;;26.22;53.84
32320;BME280;19080;51.750;5.888;2023-09-19T11:05:39;100689.78;;;25.99;55.44
32320;BME280;19080;51.750;5.888;2023-09-19T11:08:07;100742.34;;;25.99;55.27
32320;BME280;19080;51.750;5.888;2023-09-19T11:10:50;100745.88;;;24.66;57.86
32320;BME280;19080;51.750;5.888;2023-09-19T11:13:28;100726.28;;;23.52;62.23
32320;BME280;19080;51.750;5.888;2023-09-19T11:26:49;100699.75;;;25.43;55.79
32320;BME280;19080;51.750;5.888;2023-09-19T11:29:28;100585.47;;;25.10;54.39
32320;BME280;19080;51.750;5.888;2023-09-19T11:31:57;100693.00;;;25.33;55.02
32320;BME280;19080;51.750;5.888;2023-09-19T11:37:03;100711.59;;;25.23;57.50
32320;BME280;19080;51.750;5.888;2023-09-19T11:39:31;100707.31;;;27.28;53.31
32320;BME280;19080;51.750;5.888;2023-09-19T11:41:58;100670.69;;;27.95;48.22
32320;BME280;19080;51.750;5.888;2023-09-19T11:46:56;100676.78;;;27.84;48.39
32320;BME280;19080;51.750;5.888;2023-09-19T11:49:30;100634.63;;;27.29;48.76
32320;BME280;19080;51.750;5.888;2023-09-19T11:51:59;100662.81;;;26.79;50.62
32320;BME280;19080;51.750;5.888;2023-09-19T11:54:32;100689.38;;;27.08;49.80
32320;BME280;19080;51.750;5.888;2023-09-19T11:57:00;100671.63;;;26.84;49.54
32320;BME280;19080;51.750;5.888;2023-09-19T11:59:28;100688.94;;;26.83;50.49
32320;BME280;19080;51.750;5.888;2023-09-19T12:02:06;100631.31;;;26.57;53.01
32320;BME280;19080;51.750;5.888;2023-09-19T12:09:50;100661.06;;;24.61;52.50
32320;BME280;19080;51.750;5.888;2023-09-19T12:12:28;100660.34;;;24.77;55.65
32320;BME280;19080;51.750;5.888;2023-09-19T12:14:57;100672.78;;;25.76;52.29
32320;BME280;19080;51.750;5.888;2023-09-19T12:17:39;100680.78;;;25.79;50.80
32320;BME280;19080;51.750;5.888;2023-09-19T12:20:09;100661.44;;;25.30;52.31
32320;BME280;19080;51.750;5.888;2023-09-19T12:22:44;100634.41;;;26.34;51.88
32320;BME280;19080;51.750;5.888;2023-09-19T12:25:13;100617.28;;;27.91;47.79
32320;BME280;19080;51.750;5.888;2023-09-19T12:27:47;100657.56;;;28.02;45.70
32320;BME280;19080;51.750;5.888;2023-09-19T12:30:15;100657.91;;;27.50;47.06
32320;BME280;19080;51.750;5.888;2023-09-19T12:32:47;100665.63;;;27.10;48.67
32320;BME280;19080;51.750;5.888;2023-09-19T12:35:32;100667.16;;;27.32;46.61
32320;BME280;19080;51.750;5.888;2023-09-19T12:38:02;100659.31;;;27.26;46.36
32320;BME280;19080;51.750;5.888;2023-09-19T12:40:31;100656.59;;;27.26;47.10
32320;BME280;19080;51.750;5.888;2023-09-19T12:43:01;100655.19;;;27.18;48.63
32320;BME280;19080;51.750;5.888;2023-09-19T12:45:31;100592.06;;;28.46;45.47
32320;BME280;19080;51.750;5.888;2023-09-19T12:48:18;100673.53;;;28.54;45.11
32320;BME280;19080;51.750;5.888;2023-09-19T12:51:03;100662.03;;;27.26;47.73
32320;BME280;19080;51.750;5.888;2023-09-19T12:53:43;100667.13;;;25.81;49.75
32320;BME280;19080;51.750;5.888;2023-09-19T12:56:13;100672.53;;;24.87;52.34
32320;BME280;19080;51.750;5.888;2023-09-19T12:58:57;100705.41;;;24.20;54.07
32320;BME280;19080;51.750;5.888;2023-09-19T13:01:29;100698.44;;;23.49;57.46
32320;BME280;19080;51.750;5.888;2023-09-19T13:04:19;100660.22;;;22.88;62.61
32320;BME280;19080;51.750;5.888;2023-09-19T13:06:49;100683.47;;;22.68;67.70
32320;BME280;19080;51.750;5.888;2023-09-19T13:09:17;100673.13;;;22.56;69.43
32320;BME280;19080;51.750;5.888;2023-09-19T13:11:45;100670.56;;;22.77;69.72
32320;BME280;19080;51.750;5.888;2023-09-19T13:14:25;100681.22;;;24.95;59.88
32320;BME280;19080;51.750;5.888;2023-09-19T13:22:38;100693.75;;;24.18;62.35
32320;BME280;19080;51.750;5.888;2023-09-19T13:25:17;100624.09;;;23.34;64.22
32320;BME280;19080;51.750;5.888;2023-09-19T13:27:50;100674.53;;;23.60;67.21
32320;BME280;19080;51.750;5.888;2023-09-19T13:30:19;100686.88;;;23.67;66.83
32320;BME280;19080;51.750;5.888;2023-09-19T13:32:47;100669.69;;;23.45;68.41
32320;BME280;19080;51.750;5.888;2023-09-19T13:35:14;100625.69;;;22.94;71.93
32320;BME280;19080;51.750;5.888;2023-09-19T13:37:42;100677.22;;;23.15;73.59
32320;BME280;19080;51.750;5.888;2023-09-19T13:40:11;100677.81;;;22.99;75.57
32320;BME280;19080;51.750;5.888;2023-09-19T13:42:38;100681.28;;;22.80;76.88
32320;BME280;19080;51.750;5.888;2023-09-19T13:45:06;100667.69;;;22.56;75.72
32320;BME280;19080;51.750;5.888;2023-09-19T13:47:39;100661.06;;;22.17;82.11
32320;BME280;19080;51.750;5.888;2023-09-19T13:50:07;100662.50;;;22.00;85.79
32320;BME280;19080;51.750;5.888;2023-09-19T13:52:34;100664.28;;;22.01;87.83